createdAt,value
2019-01-06T00:11:50.914Z,6.14
2019-01-06T00:40:29.237Z,5.74
2019-01-06T01:09:06.683Z,5.27
2019-01-06T01:37:42.097Z,5.03
2019-01-06T02:06:18.305Z,4.79
2019-01-06T02:34:52.862Z,4.66
2019-01-06T03:03:31.832Z,4.58
2019-01-06T03:32:06.359Z,4.46
2019-01-06T04:00:43.740Z,4.32
2019-01-06T04:29:21.977Z,4.17
2019-01-06T04:58:02.392Z,3.97
2019-01-06T05:26:37.077Z,3.84
2019-01-06T05:55:16.447Z,3.83
2019-01-06T06:23:55.807Z,3.77
2019-01-06T06:52:30.455Z,3.6
2019-01-06T07:21:08.837Z,3.46
2019-01-06T07:49:47.732Z,3.35
2019-01-06T08:18:27.652Z,3.36
2019-01-06T08:47:07.452Z,3.78
2019-01-06T09:15:44.839Z,4.05
2019-01-06T09:44:26.714Z,4.48
2019-01-06T10:13:06.560Z,4.94
2019-01-06T10:41:47.967Z,5.16
2019-01-06T11:10:30.561Z,5.41
2019-01-06T11:39:11.393Z,5.57
2019-01-06T12:07:51.093Z,5.64
2019-01-06T12:36:29.313Z,5.38
2019-01-06T13:05:05.745Z,5.44
2019-01-06T13:33:43.238Z,5.26
2019-01-06T14:02:21.310Z,5.22
2019-01-06T14:30:58.989Z,5.07
2019-01-06T14:59:35.961Z,4.93
2019-01-06T15:28:14.930Z,4.78
2019-01-06T15:56:52.514Z,4.7
2019-01-06T16:25:31.786Z,4.88
2019-01-06T16:54:10.098Z,4.67
2019-01-06T17:22:48.226Z,4.6
2019-01-06T17:51:27.049Z,4.44
2019-01-06T18:20:04.690Z,4.24
2019-01-06T18:48:43.058Z,4.22
2019-01-06T19:17:21.810Z,4.67
2019-01-06T19:45:59.454Z,4.28
2019-01-06T20:14:36.550Z,4.25
2019-01-06T20:43:16.088Z,4.22
2019-01-06T21:11:53.537Z,4.34
2019-01-06T21:40:30.889Z,4.19
2019-01-06T22:09:09.064Z,4.25
2019-01-06T22:37:48.266Z,4.21
2019-01-06T23:06:27.612Z,4.24
2019-01-06T23:35:08.164Z,4.36
